sensor_id;sensor_type;location;lat;lon;timestamp;P1;durP1;ratioP1;P2;durP2;ratioP2
11962;SDS011;62678;52.130;5.584;2023-07-29T00:00:43;4.32;;;3.20;;
11962;SDS011;62678;52.130;5.584;2023-07-29T00:03:10;4.00;;;3.35;;
11962;SDS011;62678;52.130;5.584;2023-07-29T00:05:37;3.92;;;3.00;;
11962;SDS011;62678;52.130;5.584;2023-07-29T00:08:04;3.67;;;3.38;;
11962;SDS011;62678;52.130;5.584;2023-07-29T00:10:32;3.30;;;2.97;;
11962;SDS011;62678;52.130;5.584;2023-07-29T00:13:03;3.20;;;2.90;;
11962;SDS011;62678;52.130;5.584;2023-07-29T00:15:30;3.03;;;2.80;;
11962;SDS011;62678;52.130;5.584;2023-07-29T00:17:57;5.93;;;3.20;;
11962;SDS011;62678;52.130;5.584;2023-07-29T00:20:24;5.43;;;2.70;;
11962;SDS011;62678;52.130;5.584;2023-07-29T00:22:51;5.45;;;2.70;;
11962;SDS011;62678;52.130;5.584;2023-07-29T00:25:19;5.40;;;3.08;;
11962;SDS011;62678;52.130;5.584;2023-07-29T00:27:46;3.15;;;2.60;;
11962;SDS011;62678;52.130;5.584;2023-07-29T00:30:15;3.22;;;2.70;;
11962;SDS011;62678;52.130;5.584;2023-07-29T00:32:42;4.30;;;3.28;;
11962;SDS011;62678;52.130;5.584;2023-07-29T00:35:09;4.05;;;2.72;;
11962;SDS011;62678;52.130;5.584;2023-07-29T00:37:36;2.90;;;2.60;;
11962;SDS011;62678;52.130;5.584;2023-07-29T00:40:04;5.43;;;3.00;;
11962;SDS011;62678;52.130;5.584;2023-07-29T00:42:39;4.85;;;2.80;;
11962;SDS011;62678;52.130;5.584;2023-07-29T00:45:08;3.10;;;2.80;;
11962;SDS011;62678;52.130;5.584;2023-07-29T00:47:36;3.10;;;2.80;;
11962;SDS011;62678;52.130;5.584;2023-07-29T00:50:04;2.78;;;2.58;;
11962;SDS011;62678;52.130;5.584;2023-07-29T00:52:32;4.22;;;3.25;;
11962;SDS011;62678;52.130;5.584;2023-07-29T00:54:59;6.32;;;3.17;;
11962;SDS011;62678;52.130;5.584;2023-07-29T00:57:26;4.45;;;3.38;;
11962;SDS011;62678;52.130;5.584;2023-07-29T00:59:54;4.95;;;3.20;;
11962;SDS011;62678;52.130;5.584;2023-07-29T01:02:22;4.38;;;3.25;;
11962;SDS011;62678;52.130;5.584;2023-07-29T01:04:52;5.30;;;3.50;;
11962;SDS011;62678;52.130;5.584;2023-07-29T01:07:21;3.72;;;3.15;;
11962;SDS011;62678;52.130;5.584;2023-07-29T01:09:55;3.65;;;3.15;;
11962;SDS011;62678;52.130;5.584;2023-07-29T01:12:27;5.97;;;3.35;;
11962;SDS011;62678;52.130;5.584;2023-07-29T01:15:04;4.90;;;3.15;;
11962;SDS011;62678;52.130;5.584;2023-07-29T01:17:38;4.18;;;3.47;;
11962;SDS011;62678;52.130;5.584;2023-07-29T01:20:11;4.80;;;3.50;;
11962;SDS011;62678;52.130;5.584;2023-07-29T01:22:41;4.50;;;3.67;;
11962;SDS011;62678;52.130;5.584;2023-07-29T01:25:12;4.45;;;3.58;;
11962;SDS011;62678;52.130;5.584;2023-07-29T01:27:41;5.75;;;3.97;;
11962;SDS011;62678;52.130;5.584;2023-07-29T01:30:09;5.88;;;3.88;;
11962;SDS011;62678;52.130;5.584;2023-07-29T01:32:38;6.28;;;3.47;;
11962;SDS011;62678;52.130;5.584;2023-07-29T01:35:19;4.95;;;3.67;;
11962;SDS011;62678;52.130;5.584;2023-07-29T01:37:51;7.22;;;3.95;;
11962;SDS011;62678;52.130;5.584;2023-07-29T01:40:23;7.55;;;4.60;;
11962;SDS011;62678;52.130;5.584;2023-07-29T01:42:52;6.25;;;3.97;;
11962;SDS011;62678;52.130;5.584;2023-07-29T01:45:22;8.88;;;4.35;;
11962;SDS011;62678;52.130;5.584;2023-07-29T01:47:50;9.07;;;4.40;;
11962;SDS011;62678;52.130;5.584;2023-07-29T01:50:17;6.22;;;3.95;;
11962;SDS011;62678;52.130;5.584;2023-07-29T01:52:44;5.57;;;4.60;;
11962;SDS011;62678;52.130;5.584;2023-07-29T01:55:11;7.28;;;4.28;;
11962;SDS011;62678;52.130;5.584;2023-07-29T01:57:39;8.50;;;4.85;;
11962;SDS011;62678;52.130;5.584;2023-07-29T02:00:07;10.30;;;5.25;;
11962;SDS011;62678;52.130;5.584;2023-07-29T02:02:35;10.20;;;5.65;;
11962;SDS011;62678;52.130;5.584;2023-07-29T02:05:02;6.35;;;5.10;;
11962;SDS011;62678;52.130;5.584;2023-07-29T02:07:30;7.80;;;5.22;;
11962;SDS011;62678;52.130;5.584;2023-07-29T02:09:57;8.82;;;5.85;;
11962;SDS011;62678;52.130;5.584;2023-07-29T02:12:24;14.07;;;6.22;;
11962;SDS011;62678;52.130;5.584;2023-07-29T02:14:52;8.00;;;5.90;;
11962;SDS011;62678;52.130;5.584;2023-07-29T02:17:19;12.68;;;6.22;;
11962;SDS011;62678;52.130;5.584;2023-07-29T02:19:46;11.10;;;6.50;;
11962;SDS011;62678;52.130;5.584;2023-07-29T02:22:13;11.00;;;6.85;;
11962;SDS011;62678;52.130;5.584;2023-07-29T02:24:42;10.18;;;6.53;;
11962;SDS011;62678;52.130;5.584;2023-07-29T02:27:09;10.63;;;6.38;;
11962;SDS011;62678;52.130;5.584;2023-07-29T02:29:36;12.93;;;7.43;;
11962;SDS011;62678;52.130;5.584;2023-07-29T02:32:04;14.13;;;7.10;;
11962;SDS011;62678;52.130;5.584;2023-07-29T02:34:31;13.05;;;7.57;;
11962;SDS011;62678;52.130;5.584;2023-07-29T02:36:58;14.13;;;7.40;;
11962;SDS011;62678;52.130;5.584;2023-07-29T02:39:25;10.57;;;7.75;;
11962;SDS011;62678;52.130;5.584;2023-07-29T02:41:52;11.88;;;8.13;;
11962;SDS011;62678;52.130;5.584;2023-07-29T02:44:21;14.38;;;8.88;;
11962;SDS011;62678;52.130;5.584;2023-07-29T02:46:47;12.93;;;8.48;;
11962;SDS011;62678;52.130;5.584;2023-07-29T02:49:16;14.38;;;9.02;;
11962;SDS011;62678;52.130;5.584;2023-07-29T02:51:43;12.57;;;9.20;;
11962;SDS011;62678;52.130;5.584;2023-07-29T02:54:10;12.82;;;8.90;;
11962;SDS011;62678;52.130;5.584;2023-07-29T02:56:37;15.95;;;9.13;;
11962;SDS011;62678;52.130;5.584;2023-07-29T02:59:04;13.00;;;9.43;;
11962;SDS011;62678;52.130;5.584;2023-07-29T03:01:31;14.90;;;9.15;;
11962;SDS011;62678;52.130;5.584;2023-07-29T03:03:58;19.60;;;9.65;;
11962;SDS011;62678;52.130;5.584;2023-07-29T03:06:26;12.18;;;8.07;;
11962;SDS011;62678;52.130;5.584;2023-07-29T03:08:53;14.95;;;8.68;;
11962;SDS011;62678;52.130;5.584;2023-07-29T03:11:20;11.60;;;8.70;;
11962;SDS011;62678;52.130;5.584;2023-07-29T03:13:47;14.57;;;9.40;;
11962;SDS011;62678;52.130;5.584;2023-07-29T03:16:14;12.35;;;8.00;;
11962;SDS011;62678;52.130;5.584;2023-07-29T03:18:42;10.45;;;7.75;;
11962;SDS011;62678;52.130;5.584;2023-07-29T03:21:10;10.95;;;7.70;;
11962;SDS011;62678;52.130;5.584;2023-07-29T03:23:39;11.82;;;7.75;;
11962;SDS011;62678;52.130;5.584;2023-07-29T03:26:06;14.82;;;8.35;;
11962;SDS011;62678;52.130;5.584;2023-07-29T03:28:36;13.40;;;7.93;;
11962;SDS011;62678;52.130;5.584;2023-07-29T03:31:04;10.73;;;7.88;;
11962;SDS011;62678;52.130;5.584;2023-07-29T03:33:31;11.32;;;7.88;;
11962;SDS011;62678;52.130;5.584;2023-07-29T03:35:58;12.77;;;7.82;;
11962;SDS011;62678;52.130;5.584;2023-07-29T03:38:25;12.32;;;8.10;;
11962;SDS011;62678;52.130;5.584;2023-07-29T03:40:54;13.23;;;8.18;;
11962;SDS011;62678;52.130;5.584;2023-07-29T03:43:21;13.88;;;7.90;;
11962;SDS011;62678;52.130;5.584;2023-07-29T03:45:48;11.23;;;7.30;;
11962;SDS011;62678;52.130;5.584;2023-07-29T03:48:15;10.02;;;6.95;;
11962;SDS011;62678;52.130;5.584;2023-07-29T03:50:42;12.85;;;7.80;;
11962;SDS011;62678;52.130;5.584;2023-07-29T03:53:09;11.95;;;7.95;;
11962;SDS011;62678;52.130;5.584;2023-07-29T03:55:36;12.77;;;7.65;;
11962;SDS011;62678;52.130;5.584;2023-07-29T03:58:04;11.65;;;7.57;;
11962;SDS011;62678;52.130;5.584;2023-07-29T04:00:31;10.88;;;7.63;;
11962;SDS011;62678;52.130;5.584;2023-07-29T04:02:58;13.85;;;7.63;;
11962;SDS011;62678;52.130;5.584;2023-07-29T04:05:25;9.88;;;7.35;;
11962;SDS011;62678;52.130;5.584;2023-07-29T04:07:52;11.65;;;7.72;;
11962;SDS011;62678;52.130;5.584;2023-07-29T04:10:20;10.35;;;7.20;;
11962;SDS011;62678;52.130;5.584;2023-07-29T04:12:47;10.02;;;7.20;;
11962;SDS011;62678;52.130;5.584;2023-07-29T04:15:15;11.80;;;7.07;;
11962;SDS011;62678;52.130;5.584;2023-07-29T04:17:42;15.45;;;7.53;;
11962;SDS011;62678;52.130;5.584;2023-07-29T04:20:10;10.68;;;7.55;;
11962;SDS011;62678;52.130;5.584;2023-07-29T04:22:37;12.00;;;6.97;;
11962;SDS011;62678;52.130;5.584;2023-07-29T04:25:05;9.20;;;6.80;;
11962;SDS011;62678;52.130;5.584;2023-07-29T04:27:32;10.38;;;6.68;;
11962;SDS011;62678;52.130;5.584;2023-07-29T04:29:59;9.55;;;6.05;;
11962;SDS011;62678;52.130;5.584;2023-07-29T04:32:28;7.68;;;5.70;;
11962;SDS011;62678;52.130;5.584;2023-07-29T04:34:54;9.35;;;5.88;;
11962;SDS011;62678;52.130;5.584;2023-07-29T04:37:22;11.95;;;5.80;;
11962;SDS011;62678;52.130;5.584;2023-07-29T04:39:49;8.98;;;5.53;;
11962;SDS011;62678;52.130;5.584;2023-07-29T04:42:16;7.78;;;5.25;;
11962;SDS011;62678;52.130;5.584;2023-07-29T04:44:43;8.70;;;4.95;;
11962;SDS011;62678;52.130;5.584;2023-07-29T04:47:10;8.98;;;4.90;;
11962;SDS011;62678;52.130;5.584;2023-07-29T04:49:38;8.57;;;5.38;;
11962;SDS011;62678;52.130;5.584;2023-07-29T04:52:05;11.20;;;4.82;;
11962;SDS011;62678;52.130;5.584;2023-07-29T04:54:32;6.38;;;4.80;;
11962;SDS011;62678;52.130;5.584;2023-07-29T04:56:59;7.55;;;5.18;;
11962;SDS011;62678;52.130;5.584;2023-07-29T04:59:27;8.40;;;4.90;;
11962;SDS011;62678;52.130;5.584;2023-07-29T05:01:54;8.60;;;4.88;;
11962;SDS011;62678;52.130;5.584;2023-07-29T05:04:21;6.50;;;4.78;;
11962;SDS011;62678;52.130;5.584;2023-07-29T05:06:50;7.38;;;4.40;;
11962;SDS011;62678;52.130;5.584;2023-07-29T05:09:18;6.30;;;4.63;;
11962;SDS011;62678;52.130;5.584;2023-07-29T05:11:46;6.72;;;4.75;;
11962;SDS011;62678;52.130;5.584;2023-07-29T05:14:14;6.78;;;4.45;;
11962;SDS011;62678;52.130;5.584;2023-07-29T05:16:42;6.55;;;4.10;;
11962;SDS011;62678;52.130;5.584;2023-07-29T05:19:09;5.50;;;4.20;;
11962;SDS011;62678;52.130;5.584;2023-07-29T05:21:39;6.93;;;4.47;;
11962;SDS011;62678;52.130;5.584;2023-07-29T05:24:07;6.32;;;3.92;;
11962;SDS011;62678;52.130;5.584;2023-07-29T05:26:34;4.47;;;3.88;;
11962;SDS011;62678;52.130;5.584;2023-07-29T05:29:01;7.10;;;4.50;;
11962;SDS011;62678;52.130;5.584;2023-07-29T05:31:29;5.15;;;4.10;;
11962;SDS011;62678;52.130;5.584;2023-07-29T05:33:56;4.80;;;4.03;;
11962;SDS011;62678;52.130;5.584;2023-07-29T05:36:23;6.40;;;4.13;;
11962;SDS011;62678;52.130;5.584;2023-07-29T05:38:50;6.95;;;3.80;;
11962;SDS011;62678;52.130;5.584;2023-07-29T05:41:19;4.60;;;3.90;;
11962;SDS011;62678;52.130;5.584;2023-07-29T05:43:46;6.40;;;4.20;;
11962;SDS011;62678;52.130;5.584;2023-07-29T05:46:13;8.75;;;4.40;;
11962;SDS011;62678;52.130;5.584;2023-07-29T05:48:40;6.95;;;4.35;;
11962;SDS011;62678;52.130;5.584;2023-07-29T05:51:07;5.75;;;4.63;;
11962;SDS011;62678;52.130;5.584;2023-07-29T05:53:34;6.75;;;4.13;;
11962;SDS011;62678;52.130;5.584;2023-07-29T05:56:02;6.55;;;4.38;;
11962;SDS011;62678;52.130;5.584;2023-07-29T05:58:30;7.55;;;4.75;;
11962;SDS011;62678;52.130;5.584;2023-07-29T06:00:57;6.28;;;4.90;;
11962;SDS011;62678;52.130;5.584;2023-07-29T06:03:25;5.07;;;4.55;;
11962;SDS011;62678;52.130;5.584;2023-07-29T06:05:52;6.47;;;4.50;;
11962;SDS011;62678;52.130;5.584;2023-07-29T06:08:19;6.50;;;4.68;;
11962;SDS011;62678;52.130;5.584;2023-07-29T06:10:45;7.88;;;5.07;;
11962;SDS011;62678;52.130;5.584;2023-07-29T06:13:12;8.45;;;4.57;;
11962;SDS011;62678;52.130;5.584;2023-07-29T06:15:41;12.68;;;5.72;;
11962;SDS011;62678;52.130;5.584;2023-07-29T06:18:08;6.97;;;5.22;;
11962;SDS011;62678;52.130;5.584;2023-07-29T06:20:35;7.65;;;4.93;;
11962;SDS011;62678;52.130;5.584;2023-07-29T06:23:03;7.63;;;5.03;;
11962;SDS011;62678;52.130;5.584;2023-07-29T06:25:30;6.57;;;5.13;;
11962;SDS011;62678;52.130;5.584;2023-07-29T06:27:57;7.18;;;5.10;;
11962;SDS011;62678;52.130;5.584;2023-07-29T06:30:24;11.38;;;5.25;;
11962;SDS011;62678;52.130;5.584;2023-07-29T06:32:53;8.63;;;5.28;;
11962;SDS011;62678;52.130;5.584;2023-07-29T06:35:20;9.50;;;5.22;;
11962;SDS011;62678;52.130;5.584;2023-07-29T06:37:47;7.05;;;5.03;;
11962;SDS011;62678;52.130;5.584;2023-07-29T06:40:14;9.52;;;5.07;;
11962;SDS011;62678;52.130;5.584;2023-07-29T06:42:41;7.45;;;5.10;;
11962;SDS011;62678;52.130;5.584;2023-07-29T06:45:09;7.78;;;4.90;;
11962;SDS011;62678;52.130;5.584;2023-07-29T06:47:36;7.85;;;5.18;;
11962;SDS011;62678;52.130;5.584;2023-07-29T06:50:05;7.45;;;4.85;;
11962;SDS011;62678;52.130;5.584;2023-07-29T06:52:33;7.47;;;5.22;;
11962;SDS011;62678;52.130;5.584;2023-07-29T06:55:02;9.27;;;5.50;;
11962;SDS011;62678;52.130;5.584;2023-07-29T06:57:29;9.93;;;5.32;;
11962;SDS011;62678;52.130;5.584;2023-07-29T06:59:56;8.95;;;5.35;;
11962;SDS011;62678;52.130;5.584;2023-07-29T07:02:24;9.35;;;5.20;;
11962;SDS011;62678;52.130;5.584;2023-07-29T07:04:51;9.57;;;5.18;;
11962;SDS011;62678;52.130;5.584;2023-07-29T07:07:19;7.85;;;5.18;;
11962;SDS011;62678;52.130;5.584;2023-07-29T07:09:46;8.27;;;5.70;;
11962;SDS011;62678;52.130;5.584;2023-07-29T07:12:14;8.02;;;5.47;;
11962;SDS011;62678;52.130;5.584;2023-07-29T07:14:41;7.40;;;5.82;;
11962;SDS011;62678;52.130;5.584;2023-07-29T07:17:09;7.18;;;5.80;;
11962;SDS011;62678;52.130;5.584;2023-07-29T07:19:37;8.60;;;5.90;;
11962;SDS011;62678;52.130;5.584;2023-07-29T07:22:04;9.10;;;6.60;;
11962;SDS011;62678;52.130;5.584;2023-07-29T07:24:33;9.27;;;6.85;;
11962;SDS011;62678;52.130;5.584;2023-07-29T07:27:00;8.30;;;6.75;;
11962;SDS011;62678;52.130;5.584;2023-07-29T07:29:29;7.75;;;6.95;;
11962;SDS011;62678;52.130;5.584;2023-07-29T07:31:56;8.82;;;6.70;;
11962;SDS011;62678;52.130;5.584;2023-07-29T07:34:24;9.63;;;6.97;;
11962;SDS011;62678;52.130;5.584;2023-07-29T07:36:51;9.75;;;7.05;;
11962;SDS011;62678;52.130;5.584;2023-07-29T07:42:24;10.13;;;6.65;;
11962;SDS011;62678;52.130;5.584;2023-07-29T07:44:52;9.25;;;7.28;;
11962;SDS011;62678;52.130;5.584;2023-07-29T07:47:19;8.43;;;7.53;;
11962;SDS011;62678;52.130;5.584;2023-07-29T07:49:47;9.98;;;7.38;;
11962;SDS011;62678;52.130;5.584;2023-07-29T07:52:15;10.40;;;6.70;;
11962;SDS011;62678;52.130;5.584;2023-07-29T07:54:43;8.80;;;6.95;;
11962;SDS011;62678;52.130;5.584;2023-07-29T07:57:12;7.80;;;6.00;;
11962;SDS011;62678;52.130;5.584;2023-07-29T07:59:40;10.40;;;5.60;;
11962;SDS011;62678;52.130;5.584;2023-07-29T08:02:08;9.75;;;5.45;;
11962;SDS011;62678;52.130;5.584;2023-07-29T08:04:36;9.65;;;5.97;;
11962;SDS011;62678;52.130;5.584;2023-07-29T08:07:03;7.60;;;5.55;;
11962;SDS011;62678;52.130;5.584;2023-07-29T08:09:31;8.88;;;6.05;;
11962;SDS011;62678;52.130;5.584;2023-07-29T08:11:58;7.75;;;5.30;;
11962;SDS011;62678;52.130;5.584;2023-07-29T08:14:27;8.60;;;5.72;;
11962;SDS011;62678;52.130;5.584;2023-07-29T08:16:54;5.57;;;5.07;;
11962;SDS011;62678;52.130;5.584;2023-07-29T08:19:22;8.27;;;5.45;;
11962;SDS011;62678;52.130;5.584;2023-07-29T08:21:49;5.97;;;4.72;;
11962;SDS011;62678;52.130;5.584;2023-07-29T08:24:16;6.68;;;4.82;;
11962;SDS011;62678;52.130;5.584;2023-07-29T08:26:44;7.45;;;4.53;;
11962;SDS011;62678;52.130;5.584;2023-07-29T08:29:11;5.43;;;4.47;;
11962;SDS011;62678;52.130;5.584;2023-07-29T08:31:41;5.78;;;4.30;;
11962;SDS011;62678;52.130;5.584;2023-07-29T08:34:08;5.68;;;4.20;;
11962;SDS011;62678;52.130;5.584;2023-07-29T08:36:36;6.00;;;4.38;;
11962;SDS011;62678;52.130;5.584;2023-07-29T08:39:03;4.72;;;4.28;;
11962;SDS011;62678;52.130;5.584;2023-07-29T08:41:31;5.60;;;4.35;;
11962;SDS011;62678;52.130;5.584;2023-07-29T08:44:06;4.38;;;3.78;;
11962;SDS011;62678;52.130;5.584;2023-07-29T08:46:38;5.72;;;4.07;;
11962;SDS011;62678;52.130;5.584;2023-07-29T08:49:07;6.85;;;4.05;;
11962;SDS011;62678;52.130;5.584;2023-07-29T08:51:38;7.32;;;4.03;;
11962;SDS011;62678;52.130;5.584;2023-07-29T08:54:08;6.43;;;3.35;;
11962;SDS011;62678;52.130;5.584;2023-07-29T08:56:36;5.15;;;3.42;;
11962;SDS011;62678;52.130;5.584;2023-07-29T08:59:04;5.25;;;2.97;;
11962;SDS011;62678;52.130;5.584;2023-07-29T09:01:31;6.22;;;2.70;;
11962;SDS011;62678;52.130;5.584;2023-07-29T09:03:59;4.72;;;2.50;;
11962;SDS011;62678;52.130;5.584;2023-07-29T09:06:27;4.22;;;2.38;;
11962;SDS011;62678;52.130;5.584;2023-07-29T09:08:55;3.65;;;2.47;;
11962;SDS011;62678;52.130;5.584;2023-07-29T09:11:23;2.72;;;2.38;;
11962;SDS011;62678;52.130;5.584;2023-07-29T09:13:51;4.15;;;2.40;;
11962;SDS011;62678;52.130;5.584;2023-07-29T09:16:18;5.68;;;2.53;;
11962;SDS011;62678;52.130;5.584;2023-07-29T09:18:47;2.55;;;2.30;;
11962;SDS011;62678;52.130;5.584;2023-07-29T09:21:16;5.45;;;3.17;;
11962;SDS011;62678;52.130;5.584;2023-07-29T09:23:45;4.70;;;3.42;;
11962;SDS011;62678;52.130;5.584;2023-07-29T09:26:13;6.85;;;3.50;;
11962;SDS011;62678;52.130;5.584;2023-07-29T09:28:51;5.30;;;3.20;;
11962;SDS011;62678;52.130;5.584;2023-07-29T09:31:19;5.80;;;3.33;;
11962;SDS011;62678;52.130;5.584;2023-07-29T09:33:47;6.82;;;3.28;;
11962;SDS011;62678;52.130;5.584;2023-07-29T09:36:15;4.45;;;3.30;;
11962;SDS011;62678;52.130;5.584;2023-07-29T09:38:42;4.18;;;3.25;;
11962;SDS011;62678;52.130;5.584;2023-07-29T09:41:12;4.93;;;3.20;;
11962;SDS011;62678;52.130;5.584;2023-07-29T09:43:40;4.35;;;2.90;;
11962;SDS011;62678;52.130;5.584;2023-07-29T09:46:08;3.47;;;3.08;;
11962;SDS011;62678;52.130;5.584;2023-07-29T09:48:36;4.50;;;2.88;;
11962;SDS011;62678;52.130;5.584;2023-07-29T09:51:10;4.82;;;3.40;;
11962;SDS011;62678;52.130;5.584;2023-07-29T09:53:42;3.85;;;3.45;;
11962;SDS011;62678;52.130;5.584;2023-07-29T09:56:13;4.70;;;3.75;;
11962;SDS011;62678;52.130;5.584;2023-07-29T09:58:41;4.55;;;3.20;;
11962;SDS011;62678;52.130;5.584;2023-07-29T10:01:11;4.18;;;3.15;;
11962;SDS011;62678;52.130;5.584;2023-07-29T10:03:41;4.95;;;3.72;;
11962;SDS011;62678;52.130;5.584;2023-07-29T10:06:11;4.43;;;3.20;;
11962;SDS011;62678;52.130;5.584;2023-07-29T10:08:40;6.20;;;3.47;;
11962;SDS011;62678;52.130;5.584;2023-07-29T10:11:10;5.10;;;3.13;;
11962;SDS011;62678;52.130;5.584;2023-07-29T10:13:39;3.55;;;3.28;;
11962;SDS011;62678;52.130;5.584;2023-07-29T10:16:07;5.32;;;3.00;;
11962;SDS011;62678;52.130;5.584;2023-07-29T10:18:35;5.28;;;3.33;;
11962;SDS011;62678;52.130;5.584;2023-07-29T10:21:02;5.97;;;3.33;;
11962;SDS011;62678;52.130;5.584;2023-07-29T10:23:35;5.32;;;3.97;;
11962;SDS011;62678;52.130;5.584;2023-07-29T10:26:09;4.45;;;4.05;;
11962;SDS011;62678;52.130;5.584;2023-07-29T10:28:40;4.93;;;4.43;;
11962;SDS011;62678;52.130;5.584;2023-07-29T10:31:12;6.28;;;4.85;;
11962;SDS011;62678;52.130;5.584;2023-07-29T10:33:42;8.20;;;5.70;;
11962;SDS011;62678;52.130;5.584;2023-07-29T10:36:10;7.28;;;5.97;;
11962;SDS011;62678;52.130;5.584;2023-07-29T10:38:39;5.50;;;5.00;;
11962;SDS011;62678;52.130;5.584;2023-07-29T10:41:08;8.38;;;5.18;;
11962;SDS011;62678;52.130;5.584;2023-07-29T10:43:36;5.95;;;4.68;;
11962;SDS011;62678;52.130;5.584;2023-07-29T10:46:18;5.38;;;4.60;;
11962;SDS011;62678;52.130;5.584;2023-07-29T10:48:53;6.55;;;4.53;;
11962;SDS011;62678;52.130;5.584;2023-07-29T10:51:22;5.00;;;4.32;;
11962;SDS011;62678;52.130;5.584;2023-07-29T10:53:51;6.97;;;4.75;;
11962;SDS011;62678;52.130;5.584;2023-07-29T10:56:27;4.05;;;3.65;;
11962;SDS011;62678;52.130;5.584;2023-07-29T10:58:56;6.80;;;3.85;;
11962;SDS011;62678;52.130;5.584;2023-07-29T11:01:28;5.32;;;3.50;;
11962;SDS011;62678;52.130;5.584;2023-07-29T11:09:59;7.30;;;4.45;;
11962;SDS011;62678;52.130;5.584;2023-07-29T11:12:34;4.70;;;4.20;;
11962;SDS011;62678;52.130;5.584;2023-07-29T11:15:18;3.50;;;3.20;;
11962;SDS011;62678;52.130;5.584;2023-07-29T11:17:48;3.50;;;3.20;;
11962;SDS011;62678;52.130;5.584;2023-07-29T11:20:17;4.00;;;2.72;;
11962;SDS011;62678;52.130;5.584;2023-07-29T11:22:46;4.03;;;2.92;;
11962;SDS011;62678;52.130;5.584;2023-07-29T11:25:13;2.85;;;2.60;;
11962;SDS011;62678;52.130;5.584;2023-07-29T11:27:41;4.18;;;2.45;;
11962;SDS011;62678;52.130;5.584;2023-07-29T11:30:09;5.75;;;2.88;;
11962;SDS011;62678;52.130;5.584;2023-07-29T11:32:39;4.10;;;2.70;;
11962;SDS011;62678;52.130;5.584;2023-07-29T11:35:09;6.05;;;2.95;;
11962;SDS011;62678;52.130;5.584;2023-07-29T11:37:38;2.72;;;2.53;;
11962;SDS011;62678;52.130;5.584;2023-07-29T11:40:07;6.00;;;2.63;;
11962;SDS011;62678;52.130;5.584;2023-07-29T11:42:36;3.50;;;2.88;;
11962;SDS011;62678;52.130;5.584;2023-07-29T11:45:06;5.35;;;2.85;;
11962;SDS011;62678;52.130;5.584;2023-07-29T11:47:34;3.38;;;2.53;;
11962;SDS011;62678;52.130;5.584;2023-07-29T11:50:02;2.97;;;2.75;;
11962;SDS011;62678;52.130;5.584;2023-07-29T11:52:36;3.33;;;3.00;;
11962;SDS011;62678;52.130;5.584;2023-07-29T11:55:04;5.55;;;3.25;;
11962;SDS011;62678;52.130;5.584;2023-07-29T11:57:33;6.35;;;3.55;;
11962;SDS011;62678;52.130;5.584;2023-07-29T12:00:02;4.40;;;3.50;;
11962;SDS011;62678;52.130;5.584;2023-07-29T12:02:31;4.68;;;3.38;;
11962;SDS011;62678;52.130;5.584;2023-07-29T12:04:59;4.95;;;3.60;;
11962;SDS011;62678;52.130;5.584;2023-07-29T12:07:27;5.38;;;3.67;;
11962;SDS011;62678;52.130;5.584;2023-07-29T12:09:55;4.57;;;4.10;;
11962;SDS011;62678;52.130;5.584;2023-07-29T12:12:22;3.80;;;3.50;;
11962;SDS011;62678;52.130;5.584;2023-07-29T12:14:49;4.30;;;3.90;;
11962;SDS011;62678;52.130;5.584;2023-07-29T12:17:17;4.60;;;4.25;;
11962;SDS011;62678;52.130;5.584;2023-07-29T12:19:45;4.03;;;3.40;;
11962;SDS011;62678;52.130;5.584;2023-07-29T12:22:16;4.10;;;3.40;;
11962;SDS011;62678;52.130;5.584;2023-07-29T12:24:44;3.45;;;3.15;;
11962;SDS011;62678;52.130;5.584;2023-07-29T12:27:14;5.07;;;3.58;;
11962;SDS011;62678;52.130;5.584;2023-07-29T12:29:41;3.92;;;3.35;;
11962;SDS011;62678;52.130;5.584;2023-07-29T12:32:11;4.18;;;3.25;;
11962;SDS011;62678;52.130;5.584;2023-07-29T12:34:39;4.50;;;3.35;;
11962;SDS011;62678;52.130;5.584;2023-07-29T12:37:06;2.85;;;2.58;;
11962;SDS011;62678;52.130;5.584;2023-07-29T12:39:39;2.60;;;2.38;;
11962;SDS011;62678;52.130;5.584;2023-07-29T12:42:07;3.97;;;2.53;;
11962;SDS011;62678;52.130;5.584;2023-07-29T12:44:36;5.90;;;2.90;;
11962;SDS011;62678;52.130;5.584;2023-07-29T12:47:05;2.42;;;2.22;;
11962;SDS011;62678;52.130;5.584;2023-07-29T12:49:34;2.55;;;2.28;;
11962;SDS011;62678;52.130;5.584;2023-07-29T12:52:01;2.85;;;2.10;;
11962;SDS011;62678;52.130;5.584;2023-07-29T12:54:28;2.00;;;1.80;;
11962;SDS011;62678;52.130;5.584;2023-07-29T12:56:55;2.35;;;1.80;;
11962;SDS011;62678;52.130;5.584;2023-07-29T12:59:22;1.90;;;1.80;;
11962;SDS011;62678;52.130;5.584;2023-07-29T13:01:50;3.25;;;2.20;;
11962;SDS011;62678;52.130;5.584;2023-07-29T13:04:17;4.82;;;1.95;;
11962;SDS011;62678;52.130;5.584;2023-07-29T13:06:44;1.77;;;1.50;;
11962;SDS011;62678;52.130;5.584;2023-07-29T13:09:11;2.22;;;1.30;;
11962;SDS011;62678;52.130;5.584;2023-07-29T13:11:38;1.50;;;1.30;;
11962;SDS011;62678;52.130;5.584;2023-07-29T13:14:05;1.88;;;1.50;;
11962;SDS011;62678;52.130;5.584;2023-07-29T13:16:33;1.55;;;1.45;;
11962;SDS011;62678;52.130;5.584;2023-07-29T13:19:01;1.48;;;1.35;;
11962;SDS011;62678;52.130;5.584;2023-07-29T13:21:28;3.47;;;1.80;;
11962;SDS011;62678;52.130;5.584;2023-07-29T13:23:55;2.15;;;1.40;;
11962;SDS011;62678;52.130;5.584;2023-07-29T13:26:22;3.28;;;1.33;;
11962;SDS011;62678;52.130;5.584;2023-07-29T13:28:49;3.08;;;1.85;;
11962;SDS011;62678;52.130;5.584;2023-07-29T13:31:16;2.95;;;2.58;;
11962;SDS011;62678;52.130;5.584;2023-07-29T13:33:43;2.05;;;1.80;;
11962;SDS011;62678;52.130;5.584;2023-07-29T13:36:11;2.88;;;1.75;;
11962;SDS011;62678;52.130;5.584;2023-07-29T13:38:38;2.80;;;1.40;;
11962;SDS011;62678;52.130;5.584;2023-07-29T13:41:07;3.75;;;1.55;;
11962;SDS011;62678;52.130;5.584;2023-07-29T13:43:34;1.42;;;1.30;;
11962;SDS011;62678;52.130;5.584;2023-07-29T13:46:01;1.70;;;1.60;;
11962;SDS011;62678;52.130;5.584;2023-07-29T13:48:28;2.50;;;2.30;;
11962;SDS011;62678;52.130;5.584;2023-07-29T13:50:55;2.40;;;2.20;;
11962;SDS011;62678;52.130;5.584;2023-07-29T13:53:24;4.10;;;2.40;;
11962;SDS011;62678;52.130;5.584;2023-07-29T13:55:51;2.75;;;2.55;;
11962;SDS011;62678;52.130;5.584;2023-07-29T13:58:18;2.97;;;2.50;;
11962;SDS011;62678;52.130;5.584;2023-07-29T14:00:45;3.40;;;2.97;;
11962;SDS011;62678;52.130;5.584;2023-07-29T14:03:12;3.15;;;2.55;;
11962;SDS011;62678;52.130;5.584;2023-07-29T14:05:39;3.10;;;2.75;;
11962;SDS011;62678;52.130;5.584;2023-07-29T14:08:09;3.20;;;2.90;;
11962;SDS011;62678;52.130;5.584;2023-07-29T14:10:39;2.80;;;2.60;;
11962;SDS011;62678;52.130;5.584;2023-07-29T14:13:06;2.92;;;2.58;;
11962;SDS011;62678;52.130;5.584;2023-07-29T14:15:33;3.65;;;2.75;;
11962;SDS011;62678;52.130;5.584;2023-07-29T14:18:00;3.22;;;2.63;;
11962;SDS011;62678;52.130;5.584;2023-07-29T14:20:28;2.60;;;2.38;;
11962;SDS011;62678;52.130;5.584;2023-07-29T14:22:55;2.78;;;2.58;;
11962;SDS011;62678;52.130;5.584;2023-07-29T14:25:23;3.63;;;2.55;;
11962;SDS011;62678;52.130;5.584;2023-07-29T14:27:51;3.03;;;2.30;;
11962;SDS011;62678;52.130;5.584;2023-07-29T14:30:22;3.10;;;1.92;;
11962;SDS011;62678;52.130;5.584;2023-07-29T14:32:49;2.00;;;1.80;;
11962;SDS011;62678;52.130;5.584;2023-07-29T14:35:16;3.00;;;2.10;;
11962;SDS011;62678;52.130;5.584;2023-07-29T14:37:43;2.10;;;1.90;;
11962;SDS011;62678;52.130;5.584;2023-07-29T14:40:11;2.20;;;1.85;;
11962;SDS011;62678;52.130;5.584;2023-07-29T14:42:38;2.10;;;1.90;;
11962;SDS011;62678;52.130;5.584;2023-07-29T14:45:07;2.55;;;1.50;;
11962;SDS011;62678;52.130;5.584;2023-07-29T14:47:34;2.95;;;2.10;;
11962;SDS011;62678;52.130;5.584;2023-07-29T14:50:01;1.95;;;1.73;;
11962;SDS011;62678;52.130;5.584;2023-07-29T14:52:29;1.52;;;1.42;;
11962;SDS011;62678;52.130;5.584;2023-07-29T14:54:56;3.08;;;1.70;;
11962;SDS011;62678;52.130;5.584;2023-07-29T14:57:23;3.28;;;1.58;;
11962;SDS011;62678;52.130;5.584;2023-07-29T14:59:50;4.38;;;1.50;;